sensor_id;sensor_type;location;lat;lon;timestamp;P1;durP1;ratioP1;P2;durP2;ratioP2
75941;SDS011;64622;46.220;19.878;2023-03-26T00:01:17;7.33;;;2.10;;
75941;SDS011;64622;46.220;19.878;2023-03-26T00:03:49;7.78;;;2.42;;
75941;SDS011;64622;46.220;19.878;2023-03-26T00:06:24;6.32;;;1.98;;
75941;SDS011;64622;46.220;19.878;2023-03-26T00:08:54;7.72;;;2.37;;
75941;SDS011;64622;46.220;19.878;2023-03-26T00:11:26;9.13;;;2.42;;
75941;SDS011;64622;46.220;19.878;2023-03-26T00:13:55;7.83;;;2.20;;
75941;SDS011;64622;46.220;19.878;2023-03-26T00:16:23;8.55;;;2.08;;
75941;SDS011;64622;46.220;19.878;2023-03-26T00:18:54;8.02;;;2.60;;
75941;SDS011;64622;46.220;19.878;2023-03-26T00:21:23;7.43;;;2.37;;
75941;SDS011;64622;46.220;19.878;2023-03-26T00:23:54;8.63;;;2.62;;
75941;SDS011;64622;46.220;19.878;2023-03-26T00:26:26;8.00;;;2.57;;
75941;SDS011;64622;46.220;19.878;2023-03-26T00:28:54;7.12;;;2.60;;
75941;SDS011;64622;46.220;19.878;2023-03-26T00:31:21;8.30;;;2.80;;
75941;SDS011;64622;46.220;19.878;2023-03-26T00:33:49;7.80;;;2.35;;
75941;SDS011;64622;46.220;19.878;2023-03-26T00:36:19;6.65;;;2.20;;
75941;SDS011;64622;46.220;19.878;2023-03-26T00:38:47;8.03;;;2.37;;
75941;SDS011;64622;46.220;19.878;2023-03-26T00:41:16;7.82;;;2.58;;
75941;SDS011;64622;46.220;19.878;2023-03-26T00:43:49;7.12;;;2.40;;
75941;SDS011;64622;46.220;19.878;2023-03-26T00:46:17;9.32;;;2.37;;
75941;SDS011;64622;46.220;19.878;2023-03-26T00:48:45;7.78;;;2.33;;
75941;SDS011;64622;46.220;19.878;2023-03-26T00:51:13;8.17;;;2.20;;
75941;SDS011;64622;46.220;19.878;2023-03-26T00:53:43;9.27;;;2.22;;
75941;SDS011;64622;46.220;19.878;2023-03-26T00:56:10;6.90;;;2.08;;
75941;SDS011;64622;46.220;19.878;2023-03-26T00:58:38;7.25;;;2.15;;
75941;SDS011;64622;46.220;19.878;2023-03-26T01:01:10;7.30;;;2.05;;
75941;SDS011;64622;46.220;19.878;2023-03-26T01:03:40;7.67;;;2.37;;
75941;SDS011;64622;46.220;19.878;2023-03-26T01:08:48;9.90;;;2.42;;
75941;SDS011;64622;46.220;19.878;2023-03-26T01:13:47;6.60;;;1.98;;
75941;SDS011;64622;46.220;19.878;2023-03-26T01:16:18;7.17;;;2.20;;
75941;SDS011;64622;46.220;19.878;2023-03-26T01:18:50;7.28;;;2.03;;
75941;SDS011;64622;46.220;19.878;2023-03-26T01:21:20;7.10;;;2.25;;
75941;SDS011;64622;46.220;19.878;2023-03-26T01:26:40;9.30;;;2.00;;
75941;SDS011;64622;46.220;19.878;2023-03-26T01:29:32;7.90;;;2.33;;
75941;SDS011;64622;46.220;19.878;2023-03-26T01:34:34;9.35;;;2.40;;
75941;SDS011;64622;46.220;19.878;2023-03-26T01:37:34;7.43;;;2.33;;
75941;SDS011;64622;46.220;19.878;2023-03-26T01:42:47;9.80;;;2.80;;
75941;SDS011;64622;46.220;19.878;2023-03-26T01:45:24;7.70;;;2.33;;
75941;SDS011;64622;46.220;19.878;2023-03-26T01:47:55;7.00;;;2.35;;
75941;SDS011;64622;46.220;19.878;2023-03-26T01:50:22;7.55;;;2.40;;
75941;SDS011;64622;46.220;19.878;2023-03-26T01:52:49;8.93;;;2.60;;
75941;SDS011;64622;46.220;19.878;2023-03-26T01:55:15;8.17;;;2.83;;
75941;SDS011;64622;46.220;19.878;2023-03-26T01:57:53;7.87;;;2.55;;
75941;SDS011;64622;46.220;19.878;2023-03-26T02:00:51;7.97;;;2.55;;
75941;SDS011;64622;46.220;19.878;2023-03-26T02:03:29;8.98;;;2.80;;
75941;SDS011;64622;46.220;19.878;2023-03-26T02:06:43;8.30;;;2.65;;
75941;SDS011;64622;46.220;19.878;2023-03-26T02:09:01;7.73;;;2.40;;
75941;SDS011;64622;46.220;19.878;2023-03-26T02:11:39;9.63;;;2.85;;
75941;SDS011;64622;46.220;19.878;2023-03-26T02:14:07;9.20;;;3.22;;
75941;SDS011;64622;46.220;19.878;2023-03-26T02:16:35;10.82;;;2.90;;
75941;SDS011;64622;46.220;19.878;2023-03-26T02:19:02;9.43;;;3.10;;
75941;SDS011;64622;46.220;19.878;2023-03-26T02:21:29;10.17;;;2.93;;
75941;SDS011;64622;46.220;19.878;2023-03-26T02:23:59;9.40;;;3.37;;
75941;SDS011;64622;46.220;19.878;2023-03-26T02:26:29;9.90;;;2.83;;
75941;SDS011;64622;46.220;19.878;2023-03-26T02:28:58;10.57;;;3.67;;
75941;SDS011;64622;46.220;19.878;2023-03-26T02:31:26;11.98;;;3.80;;
75941;SDS011;64622;46.220;19.878;2023-03-26T02:33:53;10.90;;;3.67;;
75941;SDS011;64622;46.220;19.878;2023-03-26T02:36:21;12.02;;;3.60;;
75941;SDS011;64622;46.220;19.878;2023-03-26T02:38:55;10.75;;;3.53;;
75941;SDS011;64622;46.220;19.878;2023-03-26T02:41:23;10.30;;;3.65;;
75941;SDS011;64622;46.220;19.878;2023-03-26T02:43:51;11.40;;;3.90;;
75941;SDS011;64622;46.220;19.878;2023-03-26T02:46:18;11.43;;;3.93;;
75941;SDS011;64622;46.220;19.878;2023-03-26T02:48:47;10.65;;;3.90;;
75941;SDS011;64622;46.220;19.878;2023-03-26T02:51:14;10.43;;;4.15;;
75941;SDS011;64622;46.220;19.878;2023-03-26T02:53:44;12.02;;;4.47;;
75941;SDS011;64622;46.220;19.878;2023-03-26T02:56:12;10.13;;;3.95;;
75941;SDS011;64622;46.220;19.878;2023-03-26T02:58:40;12.17;;;4.50;;
75941;SDS011;64622;46.220;19.878;2023-03-26T03:01:07;10.55;;;4.10;;
75941;SDS011;64622;46.220;19.878;2023-03-26T03:03:35;11.70;;;4.22;;
75941;SDS011;64622;46.220;19.878;2023-03-26T03:06:03;9.90;;;4.07;;
75941;SDS011;64622;46.220;19.878;2023-03-26T03:08:30;10.95;;;4.28;;
75941;SDS011;64622;46.220;19.878;2023-03-26T03:11:02;12.03;;;4.27;;
75941;SDS011;64622;46.220;19.878;2023-03-26T03:13:36;14.35;;;4.70;;
75941;SDS011;64622;46.220;19.878;2023-03-26T03:16:03;10.35;;;4.03;;
75941;SDS011;64622;46.220;19.878;2023-03-26T03:18:30;14.27;;;5.22;;
75941;SDS011;64622;46.220;19.878;2023-03-26T03:20:57;12.37;;;5.00;;
75941;SDS011;64622;46.220;19.878;2023-03-26T03:23:23;16.70;;;5.90;;
75941;SDS011;64622;46.220;19.878;2023-03-26T03:25:52;16.40;;;5.62;;
75941;SDS011;64622;46.220;19.878;2023-03-26T03:28:23;16.60;;;5.95;;
75941;SDS011;64622;46.220;19.878;2023-03-26T03:30:50;14.35;;;6.07;;
75941;SDS011;64622;46.220;19.878;2023-03-26T03:33:24;14.13;;;5.68;;
75941;SDS011;64622;46.220;19.878;2023-03-26T03:35:51;14.23;;;5.63;;
75941;SDS011;64622;46.220;19.878;2023-03-26T03:38:18;14.68;;;5.60;;
75941;SDS011;64622;46.220;19.878;2023-03-26T03:40:45;19.33;;;6.62;;
75941;SDS011;64622;46.220;19.878;2023-03-26T03:43:12;17.40;;;6.18;;
75941;SDS011;64622;46.220;19.878;2023-03-26T03:45:39;19.30;;;6.68;;
75941;SDS011;64622;46.220;19.878;2023-03-26T03:48:06;19.23;;;6.07;;
75941;SDS011;64622;46.220;19.878;2023-03-26T03:50:34;15.82;;;6.12;;
75941;SDS011;64622;46.220;19.878;2023-03-26T03:53:03;17.87;;;5.70;;
75941;SDS011;64622;46.220;19.878;2023-03-26T03:55:31;17.70;;;6.47;;
75941;SDS011;64622;46.220;19.878;2023-03-26T03:57:58;16.80;;;6.80;;
75941;SDS011;64622;46.220;19.878;2023-03-26T04:00:25;15.33;;;6.43;;
75941;SDS011;64622;46.220;19.878;2023-03-26T04:02:53;17.90;;;6.68;;
75941;SDS011;64622;46.220;19.878;2023-03-26T04:05:21;18.37;;;7.10;;
75941;SDS011;64622;46.220;19.878;2023-03-26T04:07:49;17.00;;;6.80;;
75941;SDS011;64622;46.220;19.878;2023-03-26T04:10:18;17.33;;;6.50;;
75941;SDS011;64622;46.220;19.878;2023-03-26T04:12:47;18.97;;;6.90;;
75941;SDS011;64622;46.220;19.878;2023-03-26T04:15:15;22.33;;;7.18;;
75941;SDS011;64622;46.220;19.878;2023-03-26T04:17:48;22.52;;;7.87;;
75941;SDS011;64622;46.220;19.878;2023-03-26T04:20:14;16.60;;;6.20;;
75941;SDS011;64622;46.220;19.878;2023-03-26T04:22:42;13.02;;;3.78;;
75941;SDS011;64622;46.220;19.878;2023-03-26T04:25:10;15.30;;;5.57;;
75941;SDS011;64622;46.220;19.878;2023-03-26T04:27:40;10.00;;;3.65;;
75941;SDS011;64622;46.220;19.878;2023-03-26T04:30:10;17.95;;;7.60;;
75941;SDS011;64622;46.220;19.878;2023-03-26T04:32:41;17.30;;;6.43;;
75941;SDS011;64622;46.220;19.878;2023-03-26T04:35:13;21.62;;;8.65;;
75941;SDS011;64622;46.220;19.878;2023-03-26T04:37:42;25.60;;;9.43;;
75941;SDS011;64622;46.220;19.878;2023-03-26T04:40:16;20.35;;;7.57;;
75941;SDS011;64622;46.220;19.878;2023-03-26T04:42:46;17.30;;;5.55;;
75941;SDS011;64622;46.220;19.878;2023-03-26T04:45:14;17.27;;;7.03;;
75941;SDS011;64622;46.220;19.878;2023-03-26T04:47:44;23.60;;;8.32;;
75941;SDS011;64622;46.220;19.878;2023-03-26T04:50:11;25.03;;;8.17;;
75941;SDS011;64622;46.220;19.878;2023-03-26T04:52:38;23.23;;;8.00;;
75941;SDS011;64622;46.220;19.878;2023-03-26T04:55:12;23.85;;;8.30;;
75941;SDS011;64622;46.220;19.878;2023-03-26T04:57:52;18.35;;;7.78;;
75941;SDS011;64622;46.220;19.878;2023-03-26T05:00:28;22.25;;;8.35;;
75941;SDS011;64622;46.220;19.878;2023-03-26T05:02:56;23.70;;;8.80;;
75941;SDS011;64622;46.220;19.878;2023-03-26T05:05:27;18.45;;;6.90;;
75941;SDS011;64622;46.220;19.878;2023-03-26T05:07:56;17.45;;;6.30;;
75941;SDS011;64622;46.220;19.878;2023-03-26T05:10:24;16.77;;;7.55;;
75941;SDS011;64622;46.220;19.878;2023-03-26T05:12:51;16.27;;;6.40;;
75941;SDS011;64622;46.220;19.878;2023-03-26T05:15:19;15.03;;;6.87;;
75941;SDS011;64622;46.220;19.878;2023-03-26T05:17:47;9.90;;;3.60;;
75941;SDS011;64622;46.220;19.878;2023-03-26T05:22:43;13.75;;;5.82;;
75941;SDS011;64622;46.220;19.878;2023-03-26T05:25:13;10.85;;;4.43;;
75941;SDS011;64622;46.220;19.878;2023-03-26T05:27:39;7.93;;;2.90;;
75941;SDS011;64622;46.220;19.878;2023-03-26T05:30:06;10.82;;;4.57;;
75941;SDS011;64622;46.220;19.878;2023-03-26T05:32:39;11.12;;;4.40;;
75941;SDS011;64622;46.220;19.878;2023-03-26T05:35:06;8.98;;;3.72;;
75941;SDS011;64622;46.220;19.878;2023-03-26T05:37:33;8.98;;;3.58;;
75941;SDS011;64622;46.220;19.878;2023-03-26T05:40:01;8.77;;;3.10;;
75941;SDS011;64622;46.220;19.878;2023-03-26T05:42:31;9.25;;;3.87;;
75941;SDS011;64622;46.220;19.878;2023-03-26T05:44:59;8.60;;;3.35;;
75941;SDS011;64622;46.220;19.878;2023-03-26T05:47:26;7.35;;;3.15;;
75941;SDS011;64622;46.220;19.878;2023-03-26T05:49:53;8.88;;;3.20;;
75941;SDS011;64622;46.220;19.878;2023-03-26T05:52:20;7.97;;;3.33;;
75941;SDS011;64622;46.220;19.878;2023-03-26T05:54:47;8.43;;;3.50;;
75941;SDS011;64622;46.220;19.878;2023-03-26T05:57:17;9.90;;;3.53;;
75941;SDS011;64622;46.220;19.878;2023-03-26T05:59:46;7.45;;;2.67;;
75941;SDS011;64622;46.220;19.878;2023-03-26T06:02:15;16.42;;;12.68;;
75941;SDS011;64622;46.220;19.878;2023-03-26T06:04:44;9.97;;;3.70;;
75941;SDS011;64622;46.220;19.878;2023-03-26T06:07:11;9.45;;;3.20;;
75941;SDS011;64622;46.220;19.878;2023-03-26T06:09:39;8.25;;;3.37;;
75941;SDS011;64622;46.220;19.878;2023-03-26T06:12:06;9.63;;;3.25;;
75941;SDS011;64622;46.220;19.878;2023-03-26T06:14:35;10.55;;;3.30;;
75941;SDS011;64622;46.220;19.878;2023-03-26T06:17:02;9.27;;;2.60;;
75941;SDS011;64622;46.220;19.878;2023-03-26T06:19:31;8.85;;;2.83;;
75941;SDS011;64622;46.220;19.878;2023-03-26T06:21:58;8.38;;;3.17;;
75941;SDS011;64622;46.220;19.878;2023-03-26T06:24:25;7.87;;;2.60;;
75941;SDS011;64622;46.220;19.878;2023-03-26T06:26:53;7.70;;;2.67;;
75941;SDS011;64622;46.220;19.878;2023-03-26T06:29:20;7.97;;;2.63;;
75941;SDS011;64622;46.220;19.878;2023-03-26T06:31:46;6.95;;;2.62;;
75941;SDS011;64622;46.220;19.878;2023-03-26T06:34:17;6.78;;;2.45;;
75941;SDS011;64622;46.220;19.878;2023-03-26T06:36:44;7.60;;;2.50;;
75941;SDS011;64622;46.220;19.878;2023-03-26T06:39:11;6.70;;;2.30;;
75941;SDS011;64622;46.220;19.878;2023-03-26T06:41:39;6.70;;;2.30;;
75941;SDS011;64622;46.220;19.878;2023-03-26T06:44:07;7.00;;;1.80;;
75941;SDS011;64622;46.220;19.878;2023-03-26T06:46:35;8.48;;;2.78;;
75941;SDS011;64622;46.220;19.878;2023-03-26T06:49:06;6.97;;;2.20;;
75941;SDS011;64622;46.220;19.878;2023-03-26T06:51:34;6.90;;;2.30;;
75941;SDS011;64622;46.220;19.878;2023-03-26T06:54:02;6.57;;;1.90;;
75941;SDS011;64622;46.220;19.878;2023-03-26T06:56:30;6.82;;;2.05;;
75941;SDS011;64622;46.220;19.878;2023-03-26T06:58:57;7.80;;;2.20;;
75941;SDS011;64622;46.220;19.878;2023-03-26T07:01:45;6.20;;;1.83;;
75941;SDS011;64622;46.220;19.878;2023-03-26T07:04:26;8.15;;;2.30;;
75941;SDS011;64622;46.220;19.878;2023-03-26T07:07:21;6.87;;;2.23;;
75941;SDS011;64622;46.220;19.878;2023-03-26T07:09:54;6.12;;;1.90;;
75941;SDS011;64622;46.220;19.878;2023-03-26T07:12:23;7.47;;;2.30;;
75941;SDS011;64622;46.220;19.878;2023-03-26T07:14:51;7.47;;;2.12;;
75941;SDS011;64622;46.220;19.878;2023-03-26T07:17:22;5.90;;;1.80;;
75941;SDS011;64622;46.220;19.878;2023-03-26T07:19:49;7.50;;;2.20;;
75941;SDS011;64622;46.220;19.878;2023-03-26T07:22:19;5.82;;;1.70;;
75941;SDS011;64622;46.220;19.878;2023-03-26T07:24:50;6.43;;;1.62;;
75941;SDS011;64622;46.220;19.878;2023-03-26T07:27:30;6.95;;;2.00;;
75941;SDS011;64622;46.220;19.878;2023-03-26T07:32:54;7.20;;;1.83;;
75941;SDS011;64622;46.220;19.878;2023-03-26T07:44:03;6.53;;;1.80;;
75941;SDS011;64622;46.220;19.878;2023-03-26T07:46:44;6.70;;;1.90;;
75941;SDS011;64622;46.220;19.878;2023-03-26T07:49:13;6.97;;;1.83;;
75941;SDS011;64622;46.220;19.878;2023-03-26T07:51:40;15.80;;;2.50;;
75941;SDS011;64622;46.220;19.878;2023-03-26T07:54:08;6.10;;;1.58;;
75941;SDS011;64622;46.220;19.878;2023-03-26T07:56:37;10.70;;;1.77;;
75941;SDS011;64622;46.220;19.878;2023-03-26T08:04:57;6.35;;;1.60;;
75941;SDS011;64622;46.220;19.878;2023-03-26T08:10:25;5.55;;;1.30;;
75941;SDS011;64622;46.220;19.878;2023-03-26T08:15:37;6.68;;;1.50;;
75941;SDS011;64622;46.220;19.878;2023-03-26T08:18:16;5.93;;;1.30;;
75941;SDS011;64622;46.220;19.878;2023-03-26T08:21:00;5.18;;;1.02;;
75941;SDS011;64622;46.220;19.878;2023-03-26T08:23:40;4.80;;;1.00;;
75941;SDS011;64622;46.220;19.878;2023-03-26T08:32:02;3.80;;;0.80;;
75941;SDS011;64622;46.220;19.878;2023-03-26T08:34:34;5.07;;;1.10;;
75941;SDS011;64622;46.220;19.878;2023-03-26T08:37:01;5.03;;;1.02;;
75941;SDS011;64622;46.220;19.878;2023-03-26T08:39:27;5.53;;;1.10;;
75941;SDS011;64622;46.220;19.878;2023-03-26T08:54:36;6.07;;;1.10;;
75941;SDS011;64622;46.220;19.878;2023-03-26T09:22:52;3.30;;;0.57;;
75941;SDS011;64622;46.220;19.878;2023-03-26T09:28:19;4.35;;;0.60;;
75941;SDS011;64622;46.220;19.878;2023-03-26T09:31:08;4.65;;;0.70;;
75941;SDS011;64622;46.220;19.878;2023-03-26T09:36:53;5.43;;;1.00;;
75941;SDS011;64622;46.220;19.878;2023-03-26T09:39:48;7.07;;;1.30;;
75941;SDS011;64622;46.220;19.878;2023-03-26T09:48:18;4.65;;;0.62;;
75941;SDS011;64622;46.220;19.878;2023-03-26T09:53:50;4.18;;;1.00;;
75941;SDS011;64622;46.220;19.878;2023-03-26T10:02:55;4.12;;;0.40;;
75941;SDS011;64622;46.220;19.878;2023-03-26T10:27:17;3.25;;;0.40;;
75941;SDS011;64622;46.220;19.878;2023-03-26T10:35:37;3.53;;;0.57;;
75941;SDS011;64622;46.220;19.878;2023-03-26T10:49:39;4.28;;;0.50;;
75941;SDS011;64622;46.220;19.878;2023-03-26T10:52:15;3.25;;;0.40;;
75941;SDS011;64622;46.220;19.878;2023-03-26T10:54:54;4.03;;;0.43;;
75941;SDS011;64622;46.220;19.878;2023-03-26T11:00:20;2.27;;;0.33;;
75941;SDS011;64622;46.220;19.878;2023-03-26T11:03:08;4.03;;;0.40;;
75941;SDS011;64622;46.220;19.878;2023-03-26T11:06:01;3.47;;;0.40;;
75941;SDS011;64622;46.220;19.878;2023-03-26T11:14:12;13.77;;;0.87;;
75941;SDS011;64622;46.220;19.878;2023-03-26T11:16:58;2.22;;;0.30;;
75941;SDS011;64622;46.220;19.878;2023-03-26T11:30:45;2.92;;;0.37;;
75941;SDS011;64622;46.220;19.878;2023-03-26T11:33:20;4.45;;;0.50;;
75941;SDS011;64622;46.220;19.878;2023-03-26T11:35:51;4.12;;;0.50;;
75941;SDS011;64622;46.220;19.878;2023-03-26T11:41:10;4.87;;;0.50;;
75941;SDS011;64622;46.220;19.878;2023-03-26T11:43:41;3.12;;;0.40;;
75941;SDS011;64622;46.220;19.878;2023-03-26T11:46:15;3.40;;;0.40;;
75941;SDS011;64622;46.220;19.878;2023-03-26T11:48:47;3.22;;;0.40;;
75941;SDS011;64622;46.220;19.878;2023-03-26T11:51:26;3.62;;;0.50;;
75941;SDS011;64622;46.220;19.878;2023-03-26T11:53:58;3.17;;;0.40;;
75941;SDS011;64622;46.220;19.878;2023-03-26T11:56:32;2.30;;;0.30;;
75941;SDS011;64622;46.220;19.878;2023-03-26T11:59:11;2.45;;;0.30;;
75941;SDS011;64622;46.220;19.878;2023-03-26T12:07:08;7.47;;;1.90;;
75941;SDS011;64622;46.220;19.878;2023-03-26T12:09:59;3.17;;;0.45;;
75941;SDS011;64622;46.220;19.878;2023-03-26T12:12:29;3.78;;;0.40;;
75941;SDS011;64622;46.220;19.878;2023-03-26T12:14:58;3.47;;;0.50;;
75941;SDS011;64622;46.220;19.878;2023-03-26T12:17:29;3.35;;;0.40;;
75941;SDS011;64622;46.220;19.878;2023-03-26T12:19:57;2.00;;;0.30;;
75941;SDS011;64622;46.220;19.878;2023-03-26T12:22:34;6.25;;;1.08;;
75941;SDS011;64622;46.220;19.878;2023-03-26T12:31:01;4.72;;;0.40;;
75941;SDS011;64622;46.220;19.878;2023-03-26T12:33:31;3.27;;;0.40;;
75941;SDS011;64622;46.220;19.878;2023-03-26T12:38:56;3.55;;;0.45;;
75941;SDS011;64622;46.220;19.878;2023-03-26T12:41:38;5.72;;;0.50;;
75941;SDS011;64622;46.220;19.878;2023-03-26T12:44:16;3.85;;;0.60;;
75941;SDS011;64622;46.220;19.878;2023-03-26T12:46:49;3.50;;;0.40;;
75941;SDS011;64622;46.220;19.878;2023-03-26T12:49:19;3.42;;;0.30;;
75941;SDS011;64622;46.220;19.878;2023-03-26T12:51:51;2.78;;;0.40;;
75941;SDS011;64622;46.220;19.878;2023-03-26T12:57:08;2.45;;;0.30;;
75941;SDS011;64622;46.220;19.878;2023-03-26T13:00:02;3.47;;;0.40;;
75941;SDS011;64622;46.220;19.878;2023-03-26T13:05:56;3.47;;;0.40;;
75941;SDS011;64622;46.220;19.878;2023-03-26T13:11:41;3.37;;;0.40;;
75941;SDS011;64622;46.220;19.878;2023-03-26T13:20:02;3.70;;;0.40;;
75941;SDS011;64622;46.220;19.878;2023-03-26T13:22:57;5.50;;;0.40;;
75941;SDS011;64622;46.220;19.878;2023-03-26T13:25:40;2.42;;;0.40;;
75941;SDS011;64622;46.220;19.878;2023-03-26T13:31:40;1.87;;;0.22;;
75941;SDS011;64622;46.220;19.878;2023-03-26T13:48:21;4.62;;;0.95;;
75941;SDS011;64622;46.220;19.878;2023-03-26T13:50:56;3.17;;;0.47;;
75941;SDS011;64622;46.220;19.878;2023-03-26T13:56:36;3.70;;;0.40;;
75941;SDS011;64622;46.220;19.878;2023-03-26T13:59:13;3.50;;;0.43;;
75941;SDS011;64622;46.220;19.878;2023-03-26T14:01:48;5.22;;;0.40;;
75941;SDS011;64622;46.220;19.878;2023-03-26T14:04:29;3.85;;;0.70;;
75941;SDS011;64622;46.220;19.878;2023-03-26T14:09:43;3.80;;;0.43;;
75941;SDS011;64622;46.220;19.878;2023-03-26T14:23:47;3.00;;;0.30;;
75941;SDS011;64622;46.220;19.878;2023-03-26T14:31:41;2.65;;;0.30;;
75941;SDS011;64622;46.220;19.878;2023-03-26T14:37:32;3.77;;;0.50;;
75941;SDS011;64622;46.220;19.878;2023-03-26T14:51:11;4.77;;;0.60;;
75941;SDS011;64622;46.220;19.878;2023-03-26T14:54:07;5.90;;;0.93;;
75941;SDS011;64622;46.220;19.878;2023-03-26T14:56:51;5.32;;;0.80;;
75941;SDS011;64622;46.220;19.878;2023-03-26T15:14:09;3.97;;;0.68;;
75941;SDS011;64622;46.220;19.878;2023-03-26T15:19:46;6.70;;;2.07;;
75941;SDS011;64622;46.220;19.878;2023-03-26T15:43:05;3.08;;;0.50;;
75941;SDS011;64622;46.220;19.878;2023-03-26T15:48:42;3.03;;;0.40;;
75941;SDS011;64622;46.220;19.878;2023-03-26T15:54:21;4.93;;;0.68;;
75941;SDS011;64622;46.220;19.878;2023-03-26T16:02:42;4.13;;;0.70;;
75941;SDS011;64622;46.220;19.878;2023-03-26T16:05:37;6.05;;;1.10;;
75941;SDS011;64622;46.220;19.878;2023-03-26T16:08:14;8.68;;;2.40;;
75941;SDS011;64622;46.220;19.878;2023-03-26T16:10:54;10.73;;;2.50;;
75941;SDS011;64622;46.220;19.878;2023-03-26T16:14:37;7.82;;;1.70;;
75941;SDS011;64622;46.220;19.878;2023-03-26T16:16:55;10.07;;;2.77;;
75941;SDS011;64622;46.220;19.878;2023-03-26T16:19:31;11.77;;;3.72;;
75941;SDS011;64622;46.220;19.878;2023-03-26T16:22:08;10.88;;;3.42;;
75941;SDS011;64622;46.220;19.878;2023-03-26T16:24:44;9.40;;;2.92;;
75941;SDS011;64622;46.220;19.878;2023-03-26T16:35:02;15.10;;;3.55;;
75941;SDS011;64622;46.220;19.878;2023-03-26T16:38:02;9.48;;;2.10;;
75941;SDS011;64622;46.220;19.878;2023-03-26T16:40:35;8.82;;;1.90;;
75941;SDS011;64622;46.220;19.878;2023-03-26T16:45:50;8.93;;;2.00;;
75941;SDS011;64622;46.220;19.878;2023-03-26T16:48:28;11.00;;;2.42;;
75941;SDS011;64622;46.220;19.878;2023-03-26T16:51:12;10.80;;;3.03;;
75941;SDS011;64622;46.220;19.878;2023-03-26T16:59:10;9.35;;;2.60;;
75941;SDS011;64622;46.220;19.878;2023-03-26T17:02:12;10.00;;;3.03;;
75941;SDS011;64622;46.220;19.878;2023-03-26T17:04:43;11.75;;;3.42;;
75941;SDS011;64622;46.220;19.878;2023-03-26T17:07:15;10.50;;;3.17;;
75941;SDS011;64622;46.220;19.878;2023-03-26T17:13:06;12.40;;;3.78;;
75941;SDS011;64622;46.220;19.878;2023-03-26T17:15:40;13.48;;;4.80;;
75941;SDS011;64622;46.220;19.878;2023-03-26T17:21:20;15.15;;;6.22;;
75941;SDS011;64622;46.220;19.878;2023-03-26T17:26:26;9.15;;;3.00;;
75941;SDS011;64622;46.220;19.878;2023-03-26T17:37:38;19.20;;;8.70;;
75941;SDS011;64622;46.220;19.878;2023-03-26T17:40:25;12.18;;;4.87;;
75941;SDS011;64622;46.220;19.878;2023-03-26T17:43:02;8.32;;;2.90;;
75941;SDS011;64622;46.220;19.878;2023-03-26T17:45:35;11.35;;;3.15;;
75941;SDS011;64622;46.220;19.878;2023-03-26T17:48:09;14.57;;;3.70;;
75941;SDS011;64622;46.220;19.878;2023-03-26T17:50:47;14.33;;;3.57;;
75941;SDS011;64622;46.220;19.878;2023-03-26T17:53:20;10.63;;;3.80;;
75941;SDS011;64622;46.220;19.878;2023-03-26T17:55:50;11.20;;;3.60;;
75941;SDS011;64622;46.220;19.878;2023-03-26T17:58:39;12.13;;;5.78;;
75941;SDS011;64622;46.220;19.878;2023-03-26T18:04:10;9.97;;;2.97;;
75941;SDS011;64622;46.220;19.878;2023-03-26T18:12:26;12.75;;;3.30;;
75941;SDS011;64622;46.220;19.878;2023-03-26T18:20:38;9.88;;;3.42;;
75941;SDS011;64622;46.220;19.878;2023-03-26T18:23:08;12.32;;;3.45;;
75941;SDS011;64622;46.220;19.878;2023-03-26T18:25:37;14.63;;;4.68;;
75941;SDS011;64622;46.220;19.878;2023-03-26T18:28:06;9.55;;;3.28;;
75941;SDS011;64622;46.220;19.878;2023-03-26T18:30:32;11.83;;;4.67;;
75941;SDS011;64622;46.220;19.878;2023-03-26T18:33:13;13.90;;;4.80;;
75941;SDS011;64622;46.220;19.878;2023-03-26T18:35:42;16.45;;;8.60;;
75941;SDS011;64622;46.220;19.878;2023-03-26T18:38:16;11.77;;;5.45;;
75941;SDS011;64622;46.220;19.878;2023-03-26T18:40:46;20.90;;;9.85;;
75941;SDS011;64622;46.220;19.878;2023-03-26T18:43:16;38.43;;;21.67;;
75941;SDS011;64622;46.220;19.878;2023-03-26T18:45:45;41.97;;;23.98;;
75941;SDS011;64622;46.220;19.878;2023-03-26T18:48:18;25.00;;;14.18;;
75941;SDS011;64622;46.220;19.878;2023-03-26T18:50:50;15.90;;;7.87;;
75941;SDS011;64622;46.220;19.878;2023-03-26T18:53:23;17.42;;;6.22;;
75941;SDS011;64622;46.220;19.878;2023-03-26T18:55:55;15.70;;;6.00;;
75941;SDS011;64622;46.220;19.878;2023-03-26T19:00:57;16.75;;;6.53;;
75941;SDS011;64622;46.220;19.878;2023-03-26T19:03:27;16.48;;;5.43;;
75941;SDS011;64622;46.220;19.878;2023-03-26T19:06:00;12.85;;;4.03;;
75941;SDS011;64622;46.220;19.878;2023-03-26T19:08:30;14.70;;;4.00;;
75941;SDS011;64622;46.220;19.878;2023-03-26T19:11:00;11.65;;;4.25;;
75941;SDS011;64622;46.220;19.878;2023-03-26T19:13:31;11.55;;;3.80;;
75941;SDS011;64622;46.220;19.878;2023-03-26T19:15:59;12.02;;;4.10;;
75941;SDS011;64622;46.220;19.878;2023-03-26T19:18:31;9.50;;;3.03;;
75941;SDS011;64622;46.220;19.878;2023-03-26T19:20:58;12.00;;;4.13;;
75941;SDS011;64622;46.220;19.878;2023-03-26T19:23:45;10.75;;;3.50;;
75941;SDS011;64622;46.220;19.878;2023-03-26T19:26:13;12.30;;;3.65;;
75941;SDS011;64622;46.220;19.878;2023-03-26T19:28:43;14.13;;;3.47;;
75941;SDS011;64622;46.220;19.878;2023-03-26T19:31:23;13.00;;;4.30;;
75941;SDS011;64622;46.220;19.878;2023-03-26T19:34:19;14.63;;;3.50;;
75941;SDS011;64622;46.220;19.878;2023-03-26T19:36:50;13.25;;;3.20;;
75941;SDS011;64622;46.220;19.878;2023-03-26T19:40:11;11.10;;;2.80;;
75941;SDS011;64622;46.220;19.878;2023-03-26T19:42:22;10.43;;;2.40;;
75941;SDS011;64622;46.220;19.878;2023-03-26T19:44:55;11.77;;;2.60;;
75941;SDS011;64622;46.220;19.878;2023-03-26T19:47:23;11.50;;;3.60;;
75941;SDS011;64622;46.220;19.878;2023-03-26T19:49:59;11.68;;;3.12;;
75941;SDS011;64622;46.220;19.878;2023-03-26T19:52:33;12.05;;;3.60;;
75941;SDS011;64622;46.220;19.878;2023-03-26T19:57:36;14.18;;;3.90;;
75941;SDS011;64622;46.220;19.878;2023-03-26T20:00:05;31.63;;;13.00;;
75941;SDS011;64622;46.220;19.878;2023-03-26T20:02:39;12.27;;;3.75;;
75941;SDS011;64622;46.220;19.878;2023-03-26T20:05:18;10.65;;;3.55;;
75941;SDS011;64622;46.220;19.878;2023-03-26T20:07:55;10.45;;;3.17;;
75941;SDS011;64622;46.220;19.878;2023-03-26T20:10:26;10.45;;;2.42;;
75941;SDS011;64622;46.220;19.878;2023-03-26T20:12:53;11.17;;;3.03;;
75941;SDS011;64622;46.220;19.878;2023-03-26T20:15:21;9.43;;;2.22;;
75941;SDS011;64622;46.220;19.878;2023-03-26T20:17:50;8.48;;;2.30;;
75941;SDS011;64622;46.220;19.878;2023-03-26T20:20:22;9.68;;;3.03;;
75941;SDS011;64622;46.220;19.878;2023-03-26T20:22:51;10.57;;;3.35;;
75941;SDS011;64622;46.220;19.878;2023-03-26T20:25:21;12.83;;;4.27;;
75941;SDS011;64622;46.220;19.878;2023-03-26T20:27:51;10.43;;;3.72;;
75941;SDS011;64622;46.220;19.878;2023-03-26T20:30:21;11.77;;;3.35;;
75941;SDS011;64622;46.220;19.878;2023-03-26T20:32:50;11.00;;;3.53;;
75941;SDS011;64622;46.220;19.878;2023-03-26T20:35:20;11.63;;;3.40;;
75941;SDS011;64622;46.220;19.878;2023-03-26T20:37:49;12.57;;;3.80;;
75941;SDS011;64622;46.220;19.878;2023-03-26T20:40:16;15.75;;;2.47;;
75941;SDS011;64622;46.220;19.878;2023-03-26T20:42:45;7.35;;;1.73;;
75941;SDS011;64622;46.220;19.878;2023-03-26T20:47:40;11.75;;;2.20;;
75941;SDS011;64622;46.220;19.878;2023-03-26T20:50:08;7.73;;;1.97;;
75941;SDS011;64622;46.220;19.878;2023-03-26T20:52:41;9.68;;;2.60;;
75941;SDS011;64622;46.220;19.878;2023-03-26T20:55:11;7.53;;;1.90;;